Time;durP1;ratioP1;P1;durP2;ratioP2;P2;SDS_P1;SDS_P2;PMS_P1;PMS_P2;Temp;Humidity;BMP_temperature;BMP_pressure;BME280_temperature;BME280_humidity;BME280_pressure;Samples;Min_cycle;Max_cycle;Signal;HPM_P1;HPM_P2
2021/06/22 00:02:02;;;;;;;8.60;7.68;;;;;;;18.05;100.00;98808.94;5154757;27;20225;-74
2021/06/22 00:04:28;;;;;;;9.30;8.27;;;;;;;18.07;100.00;98799.59;5154696;27;20315;-73
2021/06/22 00:06:55;;;;;;;8.00;7.30;;;;;;;18.15;100.00;98796.06;5155231;27;21589;-73
2021/06/22 00:09:21;;;;;;;9.90;7.32;;;;;;;18.16;100.00;98797.81;5155333;27;20288;-73
2021/06/22 00:11:48;;;;;;;8.50;7.70;;;;;;;17.97;100.00;98792.50;5154803;27;20196;-74
2021/06/22 00:14:15;;;;;;;8.75;7.85;;;;;;;17.90;100.00;98797.72;5154747;27;20216;-73
2021/06/22 00:16:41;;;;;;;8.05;7.22;;;;;;;18.18;100.00;98795.78;5154543;27;20225;-72
2021/06/22 00:19:09;;;;;;;8.50;7.60;;;;;;;18.25;100.00;98785.97;5154746;27;20190;-74
2021/06/22 00:21:36;;;;;;;8.75;7.85;;;;;;;17.98;100.00;98784.19;5154641;27;20299;-72
2021/06/22 00:24:03;;;;;;;9.05;8.23;;;;;;;18.13;100.00;98787.22;5154818;27;20207;-72
2021/06/22 00:26:29;;;;;;;9.13;7.50;;;;;;;18.11;100.00;98795.56;5154914;27;20185;-73
2021/06/22 00:28:56;;;;;;;10.10;9.13;;;;;;;18.11;100.00;98790.09;5154396;27;20250;-73
2021/06/22 00:31:23;;;;;;;10.13;9.13;;;;;;;18.08;100.00;98774.06;5154727;27;20217;-73
2021/06/22 00:33:49;;;;;;;11.02;9.93;;;;;;;17.76;100.00;98771.88;5154534;27;20670;-73
2021/06/22 00:36:17;;;;;;;10.20;9.20;;;;;;;17.83;100.00;98772.97;5154651;27;20551;-72
2021/06/22 00:38:44;;;;;;;11.52;10.43;;;;;;;17.97;100.00;98770.72;5154490;27;20181;-71
2021/06/22 00:41:11;;;;;;;11.15;9.90;;;;;;;18.04;100.00;98766.34;5154764;27;20608;-72
2021/06/22 00:43:38;;;;;;;12.13;10.93;;;;;;;18.07;100.00;98769.63;5154341;27;20202;-73
2021/06/22 00:46:05;;;;;;;11.60;10.40;;;;;;;17.93;100.00;98781.06;5154268;27;20193;-72
2021/06/22 00:48:32;;;;;;;10.38;9.38;;;;;;;18.08;100.00;98767.75;5154236;27;20261;-73
2021/06/22 00:50:59;;;;;;;12.00;10.82;;;;;;;18.01;100.00;98766.69;5154654;27;20192;-72
2021/06/22 00:53:27;;;;;;;11.43;10.32;;;;;;;17.86;100.00;98766.38;5154514;27;20195;-74
2021/06/22 00:55:54;;;;;;;12.00;10.90;;;;;;;17.78;100.00;98772.56;5154709;27;20185;-71
2021/06/22 00:58:21;;;;;;;12.43;11.23;;;;;;;17.86;100.00;98780.88;5154043;27;20182;-73
2021/06/22 01:00:48;;;;;;;11.90;10.68;;;;;;;17.90;100.00;98776.78;5154487;27;20194;-73
2021/06/22 01:03:14;;;;;;;11.32;10.30;;;;;;;17.61;100.00;98771.53;5153809;27;20213;-72
2021/06/22 01:05:41;;;;;;;13.10;11.80;;;;;;;17.66;100.00;98763.78;5154355;27;20576;-73
2021/06/22 01:08:08;;;;;;;13.20;11.85;;;;;;;17.51;100.00;98758.00;5158973;27;20301;-72
2021/06/22 01:10:37;;;;;;;13.88;11.38;;;;;;;17.40;100.00;98751.94;5158282;27;20221;-72
2021/06/22 01:13:03;;;;;;;11.98;10.68;;;;;;;17.34;100.00;98749.81;5158306;27;20527;-71
2021/06/22 01:15:31;;;;;;;12.30;11.07;;;;;;;17.58;100.00;98751.94;5158399;27;20285;-72
2021/06/22 01:18:00;;;;;;;12.48;11.27;;;;;;;17.70;100.00;98754.31;5158101;27;20283;-73
2021/06/22 01:20:30;;;;;;;12.32;10.90;;;;;;;17.78;100.00;98756.22;5158430;27;20230;-73
2021/06/22 01:22:59;;;;;;;11.68;10.48;;;;;;;17.64;100.00;98754.91;5158035;27;20215;-72
2021/06/22 01:25:26;;;;;;;12.13;10.93;;;;;;;17.76;100.00;98763.69;5157711;27;20192;-72
2021/06/22 01:27:53;;;;;;;13.18;11.80;;;;;;;17.69;100.00;98763.47;5157942;27;20189;-72
2021/06/22 01:30:20;;;;;;;12.90;11.50;;;;;;;17.83;100.00;98767.53;5158002;27;20284;-72
2021/06/22 01:32:47;;;;;;;11.18;10.07;;;;;;;17.82;100.00;98751.34;5157726;27;20654;-71
2021/06/22 01:35:14;;;;;;;10.88;9.88;;;;;;;17.79;100.00;98746.19;5157621;27;20217;-73
2021/06/22 01:37:50;;;;;;;11.88;10.68;;;;;;;17.66;100.00;98763.78;5157360;27;20184;-72
2021/06/22 01:40:19;;;;;;;13.48;12.10;;;;;;;17.51;100.00;98755.28;5157759;27;20216;-73
2021/06/22 01:42:45;;;;;;;14.55;12.18;;;;;;;17.41;100.00;98750.91;5157421;27;20662;-73
2021/06/22 01:45:13;;;;;;;13.95;12.07;;;;;;;17.52;100.00;98756.13;5157245;27;20244;-73
2021/06/22 01:47:40;;;;;;;11.70;10.50;;;;;;;17.51;100.00;98752.56;5157625;27;20216;-72
2021/06/22 01:50:09;;;;;;;13.10;11.80;;;;;;;17.53;100.00;98749.69;5157697;27;20207;-72
2021/06/22 01:52:36;;;;;;;12.13;10.88;;;;;;;17.43;100.00;98748.88;5157194;27;20219;-72
2021/06/22 01:55:34;;;;;;;12.18;11.05;;;;;;;17.24;100.00;98736.28;5157116;27;20192;-73
2021/06/22 01:57:55;;;;;;;14.15;12.65;;;;;;;17.30;100.00;98739.25;5157157;27;20214;-72
2021/06/22 02:00:21;;;;;;;13.73;12.32;;;;;;;17.36;100.00;98740.47;5156832;27;20286;-72
2021/06/22 02:02:48;;;;;;;14.88;13.32;;;;;;;17.55;100.00;98727.75;5156564;27;20219;-71
2021/06/22 02:05:15;;;;;;;13.70;12.20;;;;;;;17.51;100.00;98724.50;5156634;27;20277;-73
2021/06/22 02:07:42;;;;;;;15.55;13.98;;;;;;;17.69;100.00;98730.78;5138547;27;20210;-73
2021/06/22 02:10:09;;;;;;;13.10;11.80;;;;;;;17.82;100.00;98725.00;5157191;27;20283;-73
2021/06/22 02:12:37;;;;;;;14.35;12.85;;;;;;;17.62;100.00;98723.41;5148668;27;20223;-72
2021/06/22 02:15:06;;;;;;;14.40;12.90;;;;;;;17.64;100.00;98715.97;5156707;27;20279;-71
2021/06/22 02:17:33;;;;;;;13.95;12.50;;;;;;;17.62;100.00;98724.25;5156148;27;20192;-72
2021/06/22 02:20:00;;;;;;;15.43;12.82;;;;;;;17.61;100.00;98727.13;5157090;27;20690;-72
2021/06/22 02:22:26;;;;;;;15.77;13.90;;;;;;;17.75;100.00;98718.44;5156513;27;20209;-72
2021/06/22 02:24:53;;;;;;;17.70;14.05;;;;;;;17.63;100.00;98719.66;5157248;27;20272;-72
2021/06/22 02:27:24;;;;;;;14.55;13.05;;;;;;;17.62;100.00;98720.69;5156681;27;20196;-73
2021/06/22 02:29:51;;;;;;;14.60;12.85;;;;;;;17.81;100.00;98723.28;5156451;27;20270;-72
2021/06/22 02:32:19;;;;;;;14.55;13.07;;;;;;;18.04;100.00;98728.22;5156704;27;20198;-72
2021/06/22 02:34:46;;;;;;;14.35;12.82;;;;;;;18.11;100.00;98729.31;5156196;27;20269;-72
2021/06/22 02:37:12;;;;;;;13.80;12.40;;;;;;;17.82;100.00;98730.44;5156564;27;20192;-72
2021/06/22 02:39:39;;;;;;;13.20;12.00;;;;;;;17.52;100.00;98723.47;5156037;27;20180;-71
2021/06/22 02:42:07;;;;;;;13.88;12.48;;;;;;;17.53;100.00;98725.19;5147914;27;20267;-73
2021/06/22 02:44:33;;;;;;;14.32;12.82;;;;;;;17.65;100.00;98729.38;5156218;27;20188;-72
2021/06/22 02:47:00;;;;;;;16.40;13.63;;;;;;;17.76;100.00;98727.47;5155787;27;20216;-72
2021/06/22 02:49:28;;;;;;;15.20;13.55;;;;;;;17.72;100.00;98737.78;5156313;27;20276;-72
2021/06/22 02:51:55;;;;;;;13.82;12.43;;;;;;;17.83;100.00;98732.13;5155796;27;20193;-71
2021/06/22 02:54:21;;;;;;;13.82;12.43;;;;;;;17.68;100.00;98744.56;5155921;27;20280;-72
2021/06/22 02:56:48;;;;;;;18.35;13.60;;;;;;;17.64;100.00;98738.59;5156327;27;20303;-72
2021/06/22 02:59:15;;;;;;;14.98;12.50;;;;;;;17.88;100.00;98737.13;5156002;27;20192;-73
2021/06/22 03:01:41;;;;;;;14.38;12.88;;;;;;;17.72;100.00;98735.06;5155860;27;20529;-73
2021/06/22 03:04:09;;;;;;;14.02;12.50;;;;;;;17.63;100.00;98739.56;5154984;27;20323;-72
2021/06/22 03:06:37;;;;;;;15.48;13.75;;;;;;;17.84;100.00;98754.78;5155864;27;20593;-72
2021/06/22 03:09:04;;;;;;;15.82;12.95;;;;;;;17.90;100.00;98749.56;5155832;27;20193;-72
2021/06/22 03:11:31;;;;;;;14.35;12.18;;;;;;;17.91;100.00;98753.16;5155548;27;20553;-72
2021/06/22 03:13:58;;;;;;;15.40;13.35;;;;;;;17.84;100.00;98749.31;5155820;27;20194;-72
2021/06/22 03:16:25;;;;;;;14.13;12.73;;;;;;;17.58;100.00;98752.81;5155302;27;20288;-72
2021/06/22 03:18:51;;;;;;;14.90;13.27;;;;;;;17.53;100.00;98751.56;5155681;27;20200;-73
2021/06/22 03:21:18;;;;;;;15.32;13.73;;;;;;;17.47;100.00;98753.03;5155521;27;20544;-72
2021/06/22 03:23:46;;;;;;;14.88;13.32;;;;;;;17.65;100.00;98753.88;5155191;27;20239;-72
2021/06/22 03:26:13;;;;;;;14.18;12.68;;;;;;;17.53;100.00;98757.00;5155450;27;20192;-72
2021/06/22 03:28:39;;;;;;;15.05;13.30;;;;;;;17.60;100.00;98764.38;5154509;27;20591;-70
2021/06/22 03:31:06;;;;;;;15.05;13.15;;;;;;;17.51;100.00;98773.47;5155306;27;20716;-72
2021/06/22 03:33:33;;;;;;;13.07;11.77;;;;;;;17.73;100.00;98777.63;5155268;27;20227;-72
2021/06/22 03:35:59;;;;;;;13.95;11.85;;;;;;;17.49;100.00;98764.63;5154980;27;20244;-73
2021/06/22 03:38:26;;;;;;;14.85;13.35;;;;;;;17.44;100.00;98773.22;5155485;27;20554;-72
2021/06/22 03:40:54;;;;;;;15.57;13.60;;;;;;;17.49;100.00;98775.50;5155008;27;20485;-71
2021/06/22 03:43:22;;;;;;;15.70;12.70;;;;;;;17.33;100.00;98775.31;5155027;27;20566;-72
2021/06/22 03:45:49;;;;;;;17.23;13.55;;;;;;;17.23;100.00;98770.78;5154577;27;20206;-73
2021/06/22 03:48:15;;;;;;;16.17;14.30;;;;;;;17.23;100.00;98784.41;5155225;27;20221;-73
2021/06/22 03:50:42;;;;;;;15.27;13.30;;;;;;;17.40;100.00;98790.03;5155152;27;20262;-70
2021/06/22 03:53:09;;;;;;;17.70;14.02;;;;;;;17.09;100.00;98788.47;5154459;27;20243;-72
2021/06/22 03:55:35;;;;;;;18.65;13.98;;;;;;;17.11;100.00;98792.91;5155484;27;20581;-72
2021/06/22 03:58:07;;;;;;;17.60;14.10;;;;;;;17.20;100.00;98797.44;5154687;27;20642;-71
2021/06/22 04:00:34;;;;;;;16.70;13.15;;;;;;;17.33;100.00;98816.97;5154553;27;20186;-71
2021/06/22 04:03:01;;;;;;;18.50;14.05;;;;;;;17.49;100.00;98816.31;5154115;27;20202;-73
2021/06/22 04:05:28;;;;;;;16.05;13.27;;;;;;;17.60;100.00;98821.56;5154482;27;20630;-72
2021/06/22 04:07:55;;;;;;;17.90;13.70;;;;;;;17.40;100.00;98822.69;5154588;27;20660;-73
2021/06/22 04:10:22;;;;;;;15.38;13.77;;;;;;;17.43;100.00;98825.94;5154694;27;20249;-72
2021/06/22 04:12:48;;;;;;;14.55;13.00;;;;;;;17.53;100.00;98827.78;5154606;27;20194;-73
2021/06/22 04:15:17;;;;;;;16.00;13.80;;;;;;;17.58;100.00;98826.28;5154431;27;20216;-72
2021/06/22 04:17:44;;;;;;;16.10;13.32;;;;;;;17.48;100.00;98831.78;5154363;27;20280;-72
2021/06/22 04:20:12;;;;;;;15.57;12.52;;;;;;;17.65;100.00;98837.41;5154272;27;20188;-72
2021/06/22 04:22:39;;;;;;;15.52;13.90;;;;;;;17.77;100.00;98838.91;5154412;27;20523;-73
2021/06/22 04:25:07;;;;;;;15.18;13.57;;;;;;;17.54;99.63;98843.06;5154767;27;20571;-72
2021/06/22 04:27:33;;;;;;;18.95;12.80;;;;;;;17.45;99.65;98832.06;5146169;27;20685;-72
2021/06/22 04:30:00;;;;;;;14.52;13.02;;;;;;;17.46;100.00;98838.41;5154372;27;20227;-74
2021/06/22 04:32:28;;;;;;;16.80;13.63;;;;;;;17.25;100.00;98825.91;5154148;27;20185;-73
2021/06/22 04:34:55;;;;;;;15.90;13.00;;;;;;;17.19;99.93;98826.50;5154394;27;20226;-72
2021/06/22 04:37:21;;;;;;;14.52;12.07;;;;;;;17.27;100.00;98831.19;5154975;27;20641;-71
2021/06/22 04:39:48;;;;;;;13.93;12.00;;;;;;;17.50;99.81;98837.06;5155810;27;20188;-71
2021/06/22 04:42:15;;;;;;;15.43;11.75;;;;;;;17.50;97.87;98829.78;5158592;27;20195;-71
2021/06/22 04:44:41;;;;;;;15.60;12.32;;;;;;;17.43;97.85;98828.66;5158460;27;20523;-71
2021/06/22 04:47:08;;;;;;;19.30;13.13;;;;;;;17.47;98.81;98832.78;5158309;27;20220;-73
2021/06/22 04:49:36;;;;;;;16.00;13.02;;;;;;;17.69;97.35;98831.53;5158007;27;20183;-72
2021/06/22 04:52:03;;;;;;;14.48;11.50;;;;;;;17.85;93.49;98828.16;5158437;27;20192;-71
2021/06/22 04:54:30;;;;;;;13.10;11.25;;;;;;;17.46;95.22;98831.09;5158121;27;20580;-71
2021/06/22 04:56:56;;;;;;;13.00;11.30;;;;;;;17.61;94.75;98817.81;5158018;27;20192;-72
2021/06/22 04:59:23;;;;;;;13.10;11.30;;;;;;;17.78;93.16;98827.03;5158713;27;20194;-72
2021/06/22 05:01:50;;;;;;;13.60;11.00;;;;;;;17.71;92.97;98798.72;5158364;27;20194;-71
2021/06/22 05:04:17;;;;;;;13.38;10.30;;;;;;;17.57;93.83;98821.88;5158331;27;20242;-72
2021/06/22 05:06:45;;;;;;;13.82;11.27;;;;;;;17.78;93.35;98823.44;5158545;27;20192;-72
2021/06/22 05:09:11;;;;;;;13.30;10.90;;;;;;;17.89;91.73;98828.72;5158417;27;20195;-72
2021/06/22 05:11:38;;;;;;;11.98;9.65;;;;;;;17.86;92.33;98834.44;5158197;27;20635;-72
2021/06/22 05:14:05;;;;;;;12.30;10.23;;;;;;;17.99;91.53;98829.47;5157859;27;20200;-71
2021/06/22 05:16:31;;;;;;;12.98;10.05;;;;;;;18.07;90.71;98832.28;5158155;27;20270;-72
2021/06/22 05:18:58;;;;;;;11.20;10.00;;;;;;;18.03;88.82;98825.44;5158036;27;20202;-72
2021/06/22 05:21:24;;;;;;;11.48;10.13;;;;;;;17.98;90.16;98827.78;5158439;27;20193;-72
2021/06/22 05:23:52;;;;;;;12.25;9.52;;;;;;;18.09;89.07;98819.38;5158466;27;20644;-72
2021/06/22 05:26:19;;;;;;;10.00;8.90;;;;;;;18.12;90.14;98827.22;5157953;27;20297;-71
2021/06/22 05:28:46;;;;;;;10.45;9.30;;;;;;;18.52;87.27;98838.66;5157981;27;20623;-72
2021/06/22 05:31:13;;;;;;;11.20;9.00;;;;;;;18.59;86.22;98833.38;5157850;27;20283;-72
2021/06/22 05:33:39;;;;;;;10.55;9.55;;;;;;;18.58;86.42;98843.44;5157692;27;20183;-71
2021/06/22 05:36:06;;;;;;;11.73;9.63;;;;;;;18.53;85.57;98843.91;5157770;27;20189;-71
2021/06/22 05:38:33;;;;;;;10.70;9.57;;;;;;;18.30;87.96;98837.25;5157207;27;20221;-72
2021/06/22 05:41:01;;;;;;;12.10;10.40;;;;;;;18.41;88.33;98834.28;5157035;27;20194;-72
2021/06/22 05:43:28;;;;;;;10.77;8.85;;;;;;;18.39;86.02;98819.97;5157034;27;20209;-72
2021/06/22 05:45:55;;;;;;;11.90;10.07;;;;;;;18.39;86.03;98817.22;5156871;27;20224;-72
2021/06/22 05:48:21;;;;;;;11.52;10.05;;;;;;;18.49;85.51;98826.16;5157015;27;20185;-71
2021/06/22 05:50:48;;;;;;;11.20;9.93;;;;;;;18.61;86.45;98839.53;5156453;27;20193;-73
2021/06/22 05:53:14;;;;;;;11.88;9.80;;;;;;;18.85;83.56;98836.16;5156053;27;20639;-71
2021/06/22 05:55:41;;;;;;;12.20;10.40;;;;;;;18.70;84.86;98839.47;5156839;27;20545;-72
2021/06/22 05:58:09;;;;;;;12.02;10.75;;;;;;;18.60;85.21;98837.84;5156276;27;20198;-72
2021/06/22 06:00:35;;;;;;;11.55;10.35;;;;;;;18.24;86.80;98846.91;5156571;27;20193;-72
2021/06/22 06:03:03;;;;;;;32.38;11.73;;;;;;;18.22;87.46;98845.34;5155803;27;20255;-71
2021/06/22 06:05:30;;;;;;;13.13;10.23;;;;;;;18.72;86.26;98855.63;5156130;27;20220;-72
2021/06/22 06:07:57;;;;;;;10.98;9.85;;;;;;;18.60;84.23;98856.91;5156461;27;20191;-71
2021/06/22 06:10:24;;;;;;;11.23;10.13;;;;;;;18.60;85.40;98862.38;5156917;27;20284;-72
2021/06/22 06:12:50;;;;;;;11.20;10.10;;;;;;;18.72;83.64;98870.16;5156425;27;20698;-71
2021/06/22 06:15:19;;;;;;;11.73;10.57;;;;;;;18.75;84.50;98858.91;5156824;27;20182;-71
2021/06/22 06:17:46;;;;;;;11.57;10.00;;;;;;;18.78;83.45;98865.94;5157167;27;20598;-73
2021/06/22 06:20:14;;;;;;;11.13;9.75;;;;;;;19.11;82.89;98882.53;5157013;27;20438;-73
2021/06/22 06:22:42;;;;;;;10.77;9.17;;;;;;;19.04;81.30;98887.78;5156958;27;20659;-71
2021/06/22 06:25:11;;;;;;;12.47;10.83;;;;;;;19.18;80.50;98891.78;5156644;27;20557;-72
2021/06/22 06:27:44;;;;;;;10.50;9.40;;;;;;;18.98;80.55;98888.41;5156462;27;20498;-72
2021/06/22 06:30:15;;;;;;;9.80;8.80;;;;;;;18.99;80.75;98886.53;5156818;27;20198;-70
2021/06/22 06:32:43;;;;;;;12.98;10.10;;;;;;;19.05;80.97;98888.63;5156905;27;20186;-72
2021/06/22 06:35:10;;;;;;;11.10;10.00;;;;;;;18.73;82.46;98887.34;5156965;27;20201;-72
2021/06/22 06:37:37;;;;;;;11.98;10.75;;;;;;;18.62;83.06;98893.91;5156785;27;20509;-73
2021/06/22 06:40:05;;;;;;;12.20;10.00;;;;;;;18.81;82.13;98886.59;5156852;27;20306;-73
2021/06/22 06:42:31;;;;;;;13.55;10.07;;;;;;;18.91;81.66;98893.66;5156885;27;20661;-72
2021/06/22 06:44:58;;;;;;;11.43;10.25;;;;;;;19.03;81.28;98898.84;5156027;27;20346;-72
2021/06/22 06:47:25;;;;;;;11.95;10.52;;;;;;;19.14;81.19;98906.78;5155568;27;20186;-72
2021/06/22 06:49:53;;;;;;;12.00;10.55;;;;;;;19.28;80.16;98905.31;5155756;27;20718;-72
2021/06/22 06:52:20;;;;;;;14.18;10.75;;;;;;;19.24;79.61;98907.50;5155809;27;20217;-73
2021/06/22 06:54:46;;;;;;;10.83;9.10;;;;;;;19.37;78.74;98910.66;5155209;27;20182;-73
2021/06/22 06:57:13;;;;;;;13.17;10.77;;;;;;;19.40;79.36;98912.19;5155436;27;20549;-74
2021/06/22 06:59:40;;;;;;;13.50;12.20;;;;;;;19.55;77.95;98909.72;5156604;27;20427;-72
2021/06/22 07:02:11;;;;;;;9.60;8.57;;;;;;;19.40;78.03;98914.91;5155657;27;20443;-72
2021/06/22 07:04:41;;;;;;;9.77;8.77;;;;;;;19.35;78.99;98923.59;5155604;27;21061;-72
2021/06/22 07:07:09;;;;;;;9.73;8.73;;;;;;;19.49;79.36;98924.91;5155405;27;20873;-71
2021/06/22 07:09:35;;;;;;;10.43;9.33;;;;;;;19.70;77.69;98923.66;5155550;27;20447;-71
2021/06/22 07:12:02;;;;;;;11.03;9.30;;;;;;;19.77;77.36;98930.19;5155229;27;20443;-73
2021/06/22 07:14:28;;;;;;;11.03;9.87;;;;;;;19.85;76.29;98932.06;5154843;27;20463;-72
2021/06/22 07:16:55;;;;;;;12.93;9.37;;;;;;;19.81;76.28;98947.06;5155363;27;20959;-73
2021/06/22 07:19:22;;;;;;;12.10;10.70;;;;;;;19.69;77.43;98949.25;5155462;27;20956;-72
2021/06/22 07:21:48;;;;;;;10.67;9.40;;;;;;;19.77;76.88;98949.28;5154932;27;20525;-72
2021/06/22 07:24:16;;;;;;;13.03;9.50;;;;;;;19.32;78.08;98953.09;5155099;27;20459;-71
2021/06/22 07:26:43;;;;;;;11.00;9.73;;;;;;;19.53;78.39;98956.28;5155078;27;20420;-71
2021/06/22 07:29:11;;;;;;;10.80;9.70;;;;;;;19.51;78.36;98962.94;5154988;27;20446;-71
2021/06/22 07:31:38;;;;;;;10.97;9.97;;;;;;;19.68;78.21;98970.22;5154766;27;20427;-71
2021/06/22 07:34:05;;;;;;;11.20;9.63;;;;;;;19.81;77.26;98967.06;5155006;27;20455;-72
2021/06/22 07:36:32;;;;;;;11.13;10.00;;;;;;;19.92;76.89;98957.69;5155057;27;20938;-73
2021/06/22 07:38:59;;;;;;;15.40;9.40;;;;;;;19.96;76.74;98956.34;5155034;27;20456;-71
2021/06/22 07:41:27;;;;;;;11.83;9.53;;;;;;;19.95;76.89;98954.66;5154424;27;20423;-71
2021/06/22 07:43:53;;;;;;;14.10;12.70;;;;;;;19.85;76.54;98948.47;5154506;27;20479;-71
2021/06/22 07:46:20;;;;;;;10.50;9.40;;;;;;;20.02;76.40;98954.84;5154481;27;20474;-73
2021/06/22 07:48:47;;;;;;;12.13;9.40;;;;;;;20.08;75.71;98948.72;5155084;27;20468;-71
2021/06/22 07:51:14;;;;;;;10.13;9.13;;;;;;;20.23;75.06;98949.78;5154121;27;20464;-72
2021/06/22 07:53:40;;;;;;;9.90;9.00;;;;;;;20.23;75.85;98951.66;5154566;27;20495;-71
2021/06/22 07:56:07;;;;;;;12.50;10.40;;;;;;;20.22;75.90;98945.34;5155150;27;20943;-71
2021/06/22 07:58:35;;;;;;;9.90;8.90;;;;;;;20.02;75.90;98941.19;5154702;27;20438;-72
2021/06/22 08:01:02;;;;;;;13.20;11.80;;;;;;;20.34;76.03;98943.16;5154403;27;20978;-71
2021/06/22 08:03:28;;;;;;;11.07;9.30;;;;;;;20.36;74.66;98946.56;5154333;27;20467;-71
2021/06/22 08:05:56;;;;;;;10.67;9.70;;;;;;;19.95;76.11;98950.03;5154105;27;20462;-72
2021/06/22 08:08:23;;;;;;;13.90;11.10;;;;;;;20.08;76.23;98955.06;5154150;27;20435;-72
2021/06/22 08:10:52;;;;;;;8.93;8.03;;;;;;;19.98;76.71;98955.16;5154787;27;20435;-71
2021/06/22 08:13:19;;;;;;;9.07;8.13;;;;;;;19.94;76.87;98955.66;5154371;27;20536;-72
2021/06/22 08:15:47;;;;;;;9.03;8.13;;;;;;;19.85;77.43;98956.66;5154082;27;20483;-73
2021/06/22 08:18:14;;;;;;;9.10;8.20;;;;;;;19.80;77.58;98962.59;5154168;27;20492;-72
2021/06/22 08:20:42;;;;;;;8.33;7.53;;;;;;;19.67;78.45;98962.16;5154080;27;20428;-72
2021/06/22 08:23:09;;;;;;;9.20;7.90;;;;;;;19.71;78.63;98953.50;5154647;27;20509;-72
2021/06/22 08:25:36;;;;;;;10.10;8.10;;;;;;;19.77;78.63;98960.22;5153689;27;20455;-72
2021/06/22 08:28:04;;;;;;;9.77;8.87;;;;;;;19.82;79.38;98960.56;5154354;27;20459;-72
2021/06/22 08:30:31;;;;;;;10.60;9.70;;;;;;;19.93;79.80;98963.00;5154448;27;20853;-72
2021/06/22 08:33:02;;;;;;;11.13;9.83;;;;;;;19.88;80.11;98961.81;5154203;27;20477;-73
2021/06/22 08:35:31;;;;;;;9.00;8.10;;;;;;;19.84;78.73;98963.16;5153940;27;20506;-72
2021/06/22 08:37:58;;;;;;;8.80;8.00;;;;;;;19.92;78.79;98964.03;5153990;27;20435;-72
2021/06/22 08:40:25;;;;;;;9.80;8.90;;;;;;;20.09;78.07;98973.16;5154264;27;20446;-71
2021/06/22 08:42:52;;;;;;;9.13;8.23;;;;;;;20.22;77.58;98972.69;5154141;27;20443;-72
2021/06/22 08:45:19;;;;;;;9.67;8.57;;;;;;;20.12;76.73;98978.28;5154060;27;20574;-72
2021/06/22 08:47:46;;;;;;;8.00;7.30;;;;;;;19.87;77.26;98965.53;5153772;27;20439;-73
2021/06/22 08:50:17;;;;;;;8.10;7.40;;;;;;;19.72;77.63;98976.25;5154376;27;20454;-71
2021/06/22 08:52:44;;;;;;;10.50;9.50;;;;;;;19.65;78.19;98973.28;5154058;27;20190;-72
2021/06/22 08:55:25;;;;;;;7.60;6.80;;;;;;;19.81;78.41;98986.19;5153875;27;20767;-71
2021/06/22 08:57:53;;;;;;;9.20;8.30;;;;;;;19.79;78.39;98989.06;5153367;27;20461;-73
2021/06/22 09:00:20;;;;;;;9.97;9.07;;;;;;;19.99;77.58;98986.09;5153410;27;20446;-72
2021/06/22 09:02:57;;;;;;;8.50;7.70;;;;;;;20.06;77.66;98981.69;5153893;27;20526;-72
2021/06/22 09:05:26;;;;;;;10.40;8.00;;;;;;;20.06;77.84;98987.16;5153689;27;20562;-73
2021/06/22 09:07:54;;;;;;;10.63;7.97;;;;;;;20.20;77.04;98985.66;5153799;27;20467;-73
2021/06/22 09:10:23;;;;;;;7.40;6.67;;;;;;;20.31;76.96;98984.50;5154453;27;20447;-72
2021/06/22 09:12:50;;;;;;;9.23;8.30;;;;;;;20.36;76.43;98988.44;5153332;27;20442;-70
2021/06/22 09:15:23;;;;;;;9.60;8.60;;;;;;;20.55;75.96;98992.75;5154208;27;20782;-70
2021/06/22 09:17:50;;;;;;;9.00;8.10;;;;;;;20.67;75.72;98997.91;5153617;27;20446;-72
2021/06/22 09:20:35;;;;;;;14.13;8.60;;;;;;;19.96;78.04;98994.59;5154060;27;20514;-71
2021/06/22 09:23:11;;;;;;;9.30;8.13;;;;;;;20.30;77.62;98989.09;5153116;27;20431;-71
2021/06/22 09:25:37;;;;;;;10.60;8.73;;;;;;;20.45;76.24;98988.47;5153883;27;20459;-72
2021/06/22 09:28:05;;;;;;;7.80;7.20;;;;;;;20.21;77.21;99001.03;5155915;27;20526;-72
2021/06/22 09:30:47;;;;;;;8.87;7.70;;;;;;;20.19;76.85;98997.59;5157332;27;20876;-71
2021/06/22 09:33:26;;;;;;;7.47;6.77;;;;;;;20.24;77.01;99006.19;5157077;27;20438;-72
2021/06/22 09:36:03;;;;;;;13.43;9.10;;;;;;;20.35;77.72;99007.72;5157494;27;20428;-72
2021/06/22 09:38:32;;;;;;;14.40;8.10;;;;;;;20.47;77.48;99013.78;5157730;27;20938;-73
2021/06/22 09:41:14;;;;;;;10.53;8.77;;;;;;;20.46;77.71;99010.16;5157264;27;20514;-74
2021/06/22 09:43:43;;;;;;;8.40;7.40;;;;;;;20.53;77.29;99013.97;5156906;27;20459;-73
2021/06/22 09:46:12;;;;;;;8.70;7.90;;;;;;;20.69;77.10;99004.97;5157166;27;20966;-72
2021/06/22 09:48:52;;;;;;;10.00;6.37;;;;;;;20.54;76.62;99010.19;5156510;27;20438;-72
2021/06/22 09:51:23;;;;;;;8.47;7.63;;;;;;;20.29;77.56;99011.16;5147026;27;20434;-73
2021/06/22 09:53:49;;;;;;;6.20;5.60;;;;;;;20.24;77.98;99002.56;5156846;27;20435;-72
2021/06/22 09:56:24;;;;;;;6.87;6.27;;;;;;;20.37;78.10;99017.50;5156765;27;20463;-73
2021/06/22 09:58:51;;;;;;;11.13;7.53;;;;;;;20.52;77.90;99014.13;5156650;27;20435;-72
2021/06/22 10:01:29;;;;;;;9.00;8.10;;;;;;;20.48;78.09;99008.09;5156532;27;20530;-72
2021/06/22 10:03:59;;;;;;;7.27;6.67;;;;;;;20.44;79.65;99011.34;5156544;27;20519;-72
2021/06/22 10:06:33;;;;;;;7.67;7.00;;;;;;;20.45;78.81;99016.66;5156602;27;21038;-72
2021/06/22 10:09:00;;;;;;;8.37;7.57;;;;;;;20.77;78.16;99015.91;5156883;27;20453;-72
2021/06/22 10:11:31;;;;;;;7.17;6.50;;;;;;;20.70;77.09;99023.06;5156310;27;20474;-73
2021/06/22 10:13:58;;;;;;;6.30;5.80;;;;;;;20.60;78.17;99014.19;5156755;27;20934;-72
2021/06/22 10:16:26;;;;;;;6.77;6.17;;;;;;;20.82;77.19;99021.72;5156895;27;20435;-72
2021/06/22 10:18:53;;;;;;;7.37;6.87;;;;;;;20.48;78.44;99027.25;5156752;27;20446;-73
2021/06/22 10:21:20;;;;;;;8.10;7.03;;;;;;;20.63;79.46;99010.25;5156811;27;20442;-71
2021/06/22 10:23:49;;;;;;;6.57;5.93;;;;;;;20.58;79.24;99014.34;5156803;27;20519;-72
2021/06/22 10:26:16;;;;;;;6.73;6.23;;;;;;;20.66;79.07;99018.09;5156385;27;20550;-72
2021/06/22 10:28:45;;;;;;;6.30;5.80;;;;;;;20.69;79.90;99018.63;5156378;27;21018;-73
2021/06/22 10:31:12;;;;;;;6.30;5.80;;;;;;;20.52;80.26;99016.84;5156033;27;20435;-72
2021/06/22 10:33:39;;;;;;;8.20;6.77;;;;;;;20.47;80.46;99025.56;5155806;27;20759;-71
2021/06/22 10:36:07;;;;;;;6.83;6.23;;;;;;;20.35;81.19;99025.00;5155871;27;20437;-71
2021/06/22 10:38:40;;;;;;;7.53;6.93;;;;;;;20.46;80.81;99032.03;5155067;27;20438;-73
2021/06/22 10:41:10;;;;;;;7.63;6.93;;;;;;;20.50;81.64;99030.69;5156087;27;20752;-70
2021/06/22 10:43:38;;;;;;;7.13;5.53;;;;;;;20.72;80.75;99025.66;5155504;27;20893;-72
2021/06/22 10:46:06;;;;;;;6.57;5.83;;;;;;;20.86;79.26;99019.50;5155311;27;20530;-73
2021/06/22 10:48:40;;;;;;;7.70;6.53;;;;;;;20.88;80.07;99022.09;5155280;27;20593;-72
2021/06/22 10:51:41;;;;;;;6.50;6.00;;;;;;;21.07;79.05;99023.63;5155351;27;20442;-73
2021/06/22 10:54:08;;;;;;;8.03;5.67;;;;;;;20.97;78.62;99021.06;5150368;27;20507;-73
2021/06/22 10:56:43;;;;;;;6.70;5.80;;;;;;;21.14;77.46;99016.44;5155441;27;20423;-73
2021/06/22 10:59:23;;;;;;;6.27;5.70;;;;;;;21.41;77.97;99016.13;5155507;27;20520;-73
2021/06/22 11:01:58;;;;;;;9.93;6.90;;;;;;;21.26;80.07;99012.34;5155640;27;20503;-72
2021/06/22 11:04:25;;;;;;;6.60;6.00;;;;;;;21.82;76.25;99005.09;5155084;27;20490;-71
2021/06/22 11:07:27;;;;;;;7.30;6.30;;;;;;;22.20;75.06;99013.50;5155166;27;20521;-72
2021/06/22 11:10:14;;;;;;;7.00;6.33;;;;;;;21.98;75.65;99020.63;5155391;27;20883;-72
2021/06/22 11:12:53;;;;;;;7.03;6.33;;;;;;;22.34;74.77;99019.28;5155195;27;20466;-71
2021/06/22 11:15:20;;;;;;;6.53;5.93;;;;;;;22.27;75.74;99025.50;5155683;27;20515;-72
2021/06/22 11:18:00;;;;;;;6.77;6.17;;;;;;;22.12;76.52;99016.28;5155452;27;20435;-73
2021/06/22 11:20:30;;;;;;;6.77;6.07;;;;;;;22.12;74.33;99021.78;5155573;27;20462;-73
2021/06/22 11:23:05;;;;;;;6.10;5.60;;;;;;;22.61;73.29;99026.19;5154878;27;20424;-72
2021/06/22 11:26:03;;;;;;;7.10;6.47;;;;;;;22.68;73.44;99027.16;5154801;27;20470;-71